createdAt,value
2023-03-29T00:00:57.031Z,0.00
2023-03-29T00:01:57.042Z,0.00
2023-03-29T00:02:57.040Z,0.00
2023-03-29T00:03:57.049Z,0.00
2023-03-29T00:04:56.927Z,0.00
2023-03-29T00:05:56.918Z,0.00
2023-03-29T00:06:56.944Z,0.00
2023-03-29T00:07:56.861Z,0.00
2023-03-29T00:08:56.897Z,0.00
2023-03-29T00:09:56.867Z,0.00
2023-03-29T00:10:56.850Z,0.00
2023-03-29T00:11:56.941Z,0.00
2023-03-29T00:12:56.821Z,0.00
2023-03-29T00:13:56.778Z,0.00
2023-03-29T00:14:56.819Z,0.00
2023-03-29T00:15:56.759Z,0.00
2023-03-29T00:16:56.832Z,0.00
2023-03-29T00:17:56.904Z,0.00
2023-03-29T00:18:56.754Z,0.00
2023-03-29T00:19:56.724Z,0.00
2023-03-29T00:20:56.719Z,0.00
2023-03-29T00:21:56.673Z,0.00
2023-03-29T00:22:56.709Z,0.00
2023-03-29T00:23:56.677Z,0.00
2023-03-29T00:24:56.691Z,0.00
2023-03-29T00:25:56.648Z,0.00
2023-03-29T00:26:56.645Z,0.00
2023-03-29T00:27:56.603Z,0.00
2023-03-29T00:28:56.640Z,0.00
2023-03-29T00:29:56.632Z,0.00
2023-03-29T00:30:56.617Z,0.00
2023-03-29T00:31:56.586Z,0.00
2023-03-29T00:32:56.614Z,0.00
2023-03-29T00:33:56.519Z,0.00
2023-03-29T00:34:56.557Z,0.00
2023-03-29T00:35:56.545Z,0.00
2023-03-29T00:36:56.525Z,0.00
2023-03-29T00:37:56.484Z,0.00
2023-03-29T00:38:56.494Z,0.00
2023-03-29T00:39:56.460Z,0.00
2023-03-29T00:40:56.447Z,0.00
2023-03-29T00:41:56.443Z,0.00
2023-03-29T00:42:56.454Z,0.00
2023-03-29T00:43:56.419Z,0.00
2023-03-29T00:44:56.395Z,0.00
2023-03-29T00:45:56.384Z,0.00
2023-03-29T00:46:56.403Z,0.00
2023-03-29T00:47:56.782Z,0.00
2023-03-29T00:48:56.368Z,0.00
2023-03-29T00:49:56.327Z,0.00
2023-03-29T00:50:56.323Z,0.00
2023-03-29T00:51:56.307Z,0.00
2023-03-29T00:52:56.289Z,0.00
2023-03-29T00:53:56.293Z,0.00
2023-03-29T00:54:56.287Z,0.00
2023-03-29T00:55:56.219Z,0.00
2023-03-29T00:56:56.290Z,0.00
2023-03-29T00:57:56.219Z,0.00
2023-03-29T00:58:56.207Z,0.00
2023-03-29T00:59:56.281Z,0.00
2023-03-29T01:00:56.198Z,0.00
2023-03-29T01:01:56.205Z,0.00
2023-03-29T01:02:56.225Z,0.00
2023-03-29T01:03:56.143Z,0.00
2023-03-29T01:04:56.127Z,0.00
2023-03-29T01:05:56.196Z,0.00
2023-03-29T01:06:56.151Z,0.00
2023-03-29T01:07:56.060Z,0.00
2023-03-29T01:10:13.770Z,0.00
2023-03-29T01:11:33.687Z,0.00
2023-03-29T01:12:10.085Z,0.00
2023-03-29T01:13:13.071Z,0.00
2023-03-29T01:14:22.175Z,0.00
2023-03-29T01:15:10.069Z,0.00
2023-03-29T01:16:07.990Z,0.00
2023-03-29T01:17:12.909Z,0.00
2023-03-29T01:18:07.395Z,0.00
2023-03-29T01:19:09.173Z,0.00
2023-03-29T01:20:08.771Z,0.00
2023-03-29T01:21:11.785Z,0.00
2023-03-29T01:22:39.078Z,0.00
2023-03-29T01:23:06.955Z,0.00
2023-03-29T01:24:07.389Z,0.00
2023-03-29T01:25:08.701Z,0.00
2023-03-29T01:26:07.794Z,0.00
2023-03-29T01:27:13.769Z,0.00
2023-03-29T01:28:13.675Z,0.00
2023-03-29T01:29:12.806Z,0.00
2023-03-29T01:30:07.719Z,0.00
2023-03-29T01:31:08.763Z,0.00
2023-03-29T01:32:07.277Z,0.00
2023-03-29T01:33:12.425Z,0.00
2023-03-29T01:34:13.872Z,0.00
2023-03-29T01:35:13.254Z,0.00
2023-03-29T01:36:13.215Z,0.00
2023-03-29T01:37:12.287Z,0.00
2023-03-29T01:38:08.887Z,0.00
2023-03-29T01:39:12.902Z,0.00
2023-03-29T01:40:13.545Z,0.00
2023-03-29T01:41:08.522Z,0.00
2023-03-29T01:42:10.467Z,0.00
2023-03-29T01:43:11.477Z,0.00
2023-03-29T01:44:08.566Z,0.00
2023-03-29T01:45:06.897Z,0.00
2023-03-29T01:46:13.018Z,0.00
2023-03-29T01:47:08.760Z,0.00
2023-03-29T01:48:08.723Z,0.00
2023-03-29T01:49:06.823Z,0.00
2023-03-29T01:50:06.968Z,0.00
2023-03-29T01:53:31.900Z,0.00
2023-03-29T01:54:31.871Z,0.00
2023-03-29T01:55:40.342Z,0.00
2023-03-29T01:56:33.112Z,0.00
2023-03-29T01:57:37.553Z,0.00
2023-03-29T01:58:41.924Z,0.00
2023-03-29T01:59:31.201Z,0.00
2023-03-29T02:01:50.845Z,0.00
2023-03-29T02:02:45.292Z,0.00
2023-03-29T02:03:44.926Z,0.00
2023-03-29T02:04:43.114Z,0.00
2023-03-29T02:05:48.557Z,0.00
2023-03-29T02:07:09.956Z,0.00
2023-03-29T02:07:43.920Z,0.00
2023-03-29T02:08:46.443Z,0.00
2023-03-29T02:09:47.072Z,0.00
2023-03-29T02:10:47.536Z,0.00
2023-03-29T02:11:47.846Z,0.00
2023-03-29T02:12:44.389Z,0.00
2023-03-29T02:13:46.468Z,0.00
2023-03-29T02:14:44.002Z,0.00
2023-03-29T02:15:43.034Z,0.00
2023-03-29T02:16:44.203Z,0.00
2023-03-29T02:18:07.525Z,0.00
2023-03-29T02:18:42.383Z,0.00
2023-03-29T02:19:47.948Z,0.00
2023-03-29T02:21:10.637Z,0.00
2023-03-29T02:21:49.035Z,0.00
2023-03-29T02:22:44.340Z,0.00
2023-03-29T02:23:49.090Z,7.00
2023-03-29T02:24:43.938Z,0.00
2023-03-29T02:25:48.135Z,0.00
2023-03-29T02:26:42.329Z,0.00
2023-03-29T02:30:15.843Z,0.00
2023-03-29T02:31:07.843Z,0.00
2023-03-29T02:32:08.371Z,0.00
2023-03-29T02:34:26.413Z,0.00
2023-03-29T02:35:29.148Z,0.00
2023-03-29T02:36:42.612Z,0.00
2023-03-29T02:37:43.174Z,0.00
2023-03-29T02:38:18.234Z,0.00
2023-03-29T02:39:16.836Z,0.00
2023-03-29T02:40:38.522Z,0.00
2023-03-29T02:41:38.435Z,0.00
2023-03-29T02:42:26.352Z,0.00
2023-03-29T02:43:17.262Z,0.00
2023-03-29T02:44:22.499Z,0.00
2023-03-29T02:45:20.570Z,0.00
2023-03-29T02:46:20.269Z,0.00
2023-03-29T02:47:39.433Z,0.00
2023-03-29T02:48:16.377Z,0.00
2023-03-29T02:49:16.400Z,0.00
2023-03-29T02:50:17.197Z,0.00
2023-03-29T02:51:20.818Z,0.00
2023-03-29T02:52:17.326Z,0.00
2023-03-29T02:53:17.036Z,0.00
2023-03-29T02:54:16.316Z,0.00
2023-03-29T02:55:17.177Z,0.00
2023-03-29T02:56:28.713Z,0.00
2023-03-29T02:57:26.146Z,0.00
2023-03-29T02:58:16.540Z,0.00
2023-03-29T02:59:18.601Z,0.00
2023-03-29T03:00:22.503Z,0.00
2023-03-29T03:02:30.316Z,0.00
2023-03-29T03:03:30.743Z,0.00
2023-03-29T03:04:30.436Z,0.00
2023-03-29T03:05:30.958Z,0.00
2023-03-29T03:07:00.572Z,0.00
2023-03-29T03:07:30.124Z,0.00
2023-03-29T03:08:29.112Z,0.00
2023-03-29T03:09:55.695Z,0.00
2023-03-29T03:10:29.532Z,0.00
2023-03-29T03:11:29.869Z,0.00
2023-03-29T03:12:38.395Z,0.00
2023-03-29T03:13:36.536Z,0.00
2023-03-29T03:14:37.979Z,0.00
2023-03-29T03:15:34.898Z,0.00
2023-03-29T03:16:30.506Z,0.00
2023-03-29T03:17:28.858Z,0.00
2023-03-29T03:18:29.095Z,0.00
2023-03-29T03:19:28.483Z,0.00
2023-03-29T03:20:30.007Z,0.00
2023-03-29T03:21:30.017Z,0.00
2023-03-29T03:22:30.018Z,0.00
2023-03-29T03:23:28.919Z,0.00
2023-03-29T03:25:42.290Z,0.00
2023-03-29T03:26:43.850Z,0.00
2023-03-29T03:27:41.419Z,0.00
2023-03-29T03:28:41.148Z,0.00
2023-03-29T03:30:08.104Z,0.00
2023-03-29T03:30:49.061Z,0.00
2023-03-29T03:31:46.179Z,0.00
2023-03-29T03:32:42.817Z,0.00
2023-03-29T03:33:43.159Z,0.00
2023-03-29T03:34:47.407Z,0.00
2023-03-29T03:35:47.609Z,0.00
2023-03-29T03:36:48.223Z,0.00
2023-03-29T03:37:47.647Z,0.00
2023-03-29T03:38:42.814Z,0.00
2023-03-29T03:39:47.185Z,0.00
2023-03-29T03:40:44.291Z,0.00
2023-03-29T03:41:41.225Z,0.00
2023-03-29T03:42:45.342Z,0.00
2023-03-29T03:43:42.765Z,0.00
2023-03-29T03:44:41.767Z,0.00
2023-03-29T03:45:46.392Z,0.00
2023-03-29T03:46:48.806Z,0.00
2023-03-29T03:47:45.373Z,0.00
2023-03-29T03:48:42.596Z,0.00
2023-03-29T03:49:42.702Z,0.00
2023-03-29T03:50:42.812Z,0.00
2023-03-29T03:51:43.431Z,0.00
2023-03-29T03:53:02.177Z,0.00
2023-03-29T03:53:40.981Z,0.00
2023-03-29T03:54:46.795Z,0.00
2023-03-29T03:55:48.471Z,0.00
2023-03-29T03:56:42.274Z,0.00
2023-03-29T03:57:40.920Z,0.00
2023-03-29T03:59:02.766Z,0.00
2023-03-29T03:59:41.544Z,0.00
2023-03-29T04:00:41.586Z,0.00
2023-03-29T04:01:42.688Z,0.00
2023-03-29T04:02:41.398Z,0.00
2023-03-29T04:03:42.454Z,0.00
2023-03-29T04:04:43.535Z,0.00
2023-03-29T04:05:45.551Z,0.00
2023-03-29T04:07:03.610Z,0.00
2023-03-29T04:07:41.396Z,0.00
2023-03-29T04:08:41.520Z,0.00
2023-03-29T04:09:42.330Z,0.00
2023-03-29T04:10:41.440Z,0.00
2023-03-29T04:15:18.806Z,0.00
2023-03-29T04:16:19.861Z,0.00
2023-03-29T04:17:19.466Z,0.00
2023-03-29T04:18:22.009Z,0.00
2023-03-29T04:19:20.835Z,0.00
2023-03-29T04:20:19.566Z,0.00
2023-03-29T04:21:21.424Z,0.00
2023-03-29T04:22:15.104Z,0.00
2023-03-29T04:23:20.438Z,0.00
2023-03-29T04:24:20.858Z,0.00
2023-03-29T04:25:23.068Z,0.00
2023-03-29T04:26:15.826Z,0.00
2023-03-29T04:27:19.787Z,0.00
2023-03-29T04:28:21.488Z,0.00
2023-03-29T04:29:17.053Z,0.00
2023-03-29T04:30:15.568Z,0.00
2023-03-29T04:31:16.938Z,0.00
2023-03-29T04:32:20.379Z,0.00
2023-03-29T04:33:19.040Z,1.00
2023-03-29T04:34:16.400Z,1.00
2023-03-29T04:35:17.274Z,1.00
2023-03-29T04:36:17.044Z,1.00
2023-03-29T04:37:19.335Z,0.00
2023-03-29T04:38:21.033Z,0.00
2023-03-29T04:39:15.316Z,2.00
2023-03-29T04:40:15.425Z,10.00
2023-03-29T04:41:16.558Z,4.00
2023-03-29T04:42:20.163Z,0.00
2023-03-29T04:43:15.229Z,4.00
2023-03-29T04:44:20.453Z,7.00
2023-03-29T04:45:17.060Z,6.00
2023-03-29T04:46:18.973Z,5.00
2023-03-29T04:47:15.161Z,9.00
2023-03-29T04:48:20.574Z,15.00
2023-03-29T04:49:14.676Z,9.00
2023-03-29T04:50:15.288Z,20.00
2023-03-29T04:51:16.421Z,18.00
2023-03-29T04:52:16.424Z,18.00
2023-03-29T04:53:19.086Z,25.00
2023-03-29T04:54:15.112Z,21.00
2023-03-29T04:55:20.686Z,30.00
2023-03-29T04:56:16.045Z,33.00
2023-03-29T04:57:15.074Z,40.00
2023-03-29T04:58:41.651Z,51.00
2023-03-29T04:59:20.291Z,48.00
2023-03-29T05:00:16.297Z,74.00
2023-03-29T05:01:24.384Z,73.00
2023-03-29T05:02:14.976Z,86.00
2023-03-29T05:03:15.889Z,92.00
2023-03-29T05:04:20.135Z,109.00
2023-03-29T05:05:20.736Z,115.00
2023-03-29T05:06:19.890Z,137.00
2023-03-29T05:07:14.896Z,149.00
2023-03-29T05:08:14.032Z,156.00
2023-03-29T05:09:13.983Z,178.00
2023-03-29T05:10:14.060Z,195.00
2023-03-29T05:11:13.946Z,218.00
2023-03-29T05:12:13.986Z,245.00
2023-03-29T05:13:13.956Z,257.00
2023-03-29T05:14:13.930Z,283.00
2023-03-29T05:15:13.968Z,312.00
2023-03-29T05:16:13.977Z,338.00
2023-03-29T05:17:13.871Z,355.00
2023-03-29T05:18:13.900Z,368.00
2023-03-29T05:19:13.838Z,374.00
2023-03-29T05:20:13.904Z,407.00
2023-03-29T05:21:13.837Z,445.00
2023-03-29T05:22:13.971Z,456.00
2023-03-29T05:23:13.811Z,488.00
2023-03-29T05:24:13.804Z,507.00
2023-03-29T05:25:13.780Z,524.00
2023-03-29T05:26:13.795Z,539.00
2023-03-29T05:27:13.732Z,550.00
2023-03-29T05:28:13.888Z,576.00
2023-03-29T05:29:13.730Z,589.00
2023-03-29T05:30:13.750Z,612.00
2023-03-29T05:31:16.660Z,623.00
2023-03-29T05:32:13.818Z,644.00
2023-03-29T05:33:13.681Z,659.00
2023-03-29T05:34:13.810Z,668.00
2023-03-29T05:35:13.634Z,687.00
2023-03-29T05:36:13.787Z,708.00
2023-03-29T05:37:13.647Z,711.00
2023-03-29T05:38:13.646Z,697.00
2023-03-29T05:39:13.570Z,710.00
2023-03-29T05:40:13.642Z,724.00
2023-03-29T05:41:13.574Z,744.00
2023-03-29T05:42:13.561Z,789.00
2023-03-29T05:43:13.576Z,821.00
2023-03-29T05:44:13.542Z,884.00
2023-03-29T05:45:13.497Z,969.00
2023-03-29T05:46:13.618Z,1055.00
2023-03-29T05:47:13.466Z,1138.00
2023-03-29T05:48:13.516Z,1184.00
2023-03-29T05:49:13.488Z,1205.00
2023-03-29T05:50:13.450Z,1250.00
2023-03-29T05:51:13.438Z,1282.00
2023-03-29T05:52:13.472Z,1324.00
2023-03-29T05:53:13.381Z,1394.00
2023-03-29T05:54:13.429Z,1488.00
2023-03-29T05:55:13.372Z,1583.00
2023-03-29T05:56:13.405Z,1636.00
2023-03-29T05:57:13.356Z,1676.00
2023-03-29T05:58:13.400Z,1698.00
2023-03-29T05:59:13.312Z,1702.00
2023-03-29T06:00:13.378Z,1682.00
2023-03-29T06:01:13.306Z,1654.00
2023-03-29T06:02:13.323Z,1607.00
2023-03-29T06:03:18.066Z,1570.00
2023-03-29T06:04:14.538Z,1555.00
2023-03-29T06:05:13.255Z,1543.00
2023-03-29T06:06:13.264Z,1520.00
2023-03-29T06:07:13.198Z,1486.00
2023-03-29T06:08:13.245Z,1429.00
2023-03-29T06:09:13.221Z,1404.00
2023-03-29T06:10:13.260Z,1425.00
2023-03-29T06:11:13.327Z,1427.00
2023-03-29T06:12:13.184Z,1400.00
2023-03-29T06:13:13.148Z,1403.00
2023-03-29T06:14:13.170Z,1367.00
2023-03-29T06:15:13.125Z,1297.00
2023-03-29T06:16:13.137Z,1191.00
2023-03-29T06:17:13.190Z,1123.00
2023-03-29T06:18:13.154Z,1064.00
2023-03-29T06:19:13.062Z,1013.00
2023-03-29T06:20:13.092Z,975.00
2023-03-29T06:21:13.041Z,952.00
2023-03-29T06:22:14.923Z,935.00
2023-03-29T06:23:13.043Z,930.00
2023-03-29T06:24:13.005Z,924.00
2023-03-29T06:25:12.971Z,934.00
2023-03-29T06:26:13.033Z,983.00
2023-03-29T06:27:13.657Z,1048.00
2023-03-29T06:28:13.066Z,1111.00
2023-03-29T06:29:12.938Z,1207.00
2023-03-29T06:30:12.929Z,1330.00
2023-03-29T06:31:12.963Z,1453.00
2023-03-29T06:32:12.914Z,1506.00
2023-03-29T06:33:12.856Z,1453.00
2023-03-29T06:34:13.010Z,1392.00
2023-03-29T06:35:12.861Z,1334.00
2023-03-29T06:36:12.906Z,1330.00
2023-03-29T06:37:12.829Z,1376.00
2023-03-29T06:38:12.826Z,1431.00
2023-03-29T06:39:12.805Z,1519.00
2023-03-29T06:40:12.938Z,1597.00
2023-03-29T06:41:12.764Z,1615.00
2023-03-29T06:42:20.674Z,1592.00
2023-03-29T06:43:13.763Z,1589.00
2023-03-29T06:44:12.744Z,1633.00
2023-03-29T06:45:12.726Z,1736.00
2023-03-29T06:46:12.801Z,1838.00
2023-03-29T06:47:12.673Z,1881.00
2023-03-29T06:48:12.722Z,1880.00
2023-03-29T06:49:12.690Z,1867.00
2023-03-29T06:50:12.671Z,1909.00
2023-03-29T06:51:12.797Z,1952.00
2023-03-29T06:52:12.679Z,1964.00
2023-03-29T06:53:12.613Z,1998.00
2023-03-29T06:54:12.644Z,2135.00
2023-03-29T06:55:12.573Z,2219.00
2023-03-29T06:56:12.605Z,2226.00
2023-03-29T06:57:12.613Z,2191.00
2023-03-29T06:58:12.678Z,2163.00
2023-03-29T06:59:12.518Z,2252.00
2023-03-29T07:00:12.554Z,2411.00
2023-03-29T07:01:12.522Z,2498.00
2023-03-29T07:02:12.725Z,2530.00
2023-03-29T07:03:12.553Z,2559.00
2023-03-29T07:04:12.567Z,2637.00
2023-03-29T07:05:12.441Z,2750.00
2023-03-29T07:06:12.493Z,2679.00
2023-03-29T07:07:12.415Z,2698.00
2023-03-29T07:08:12.479Z,2873.00
2023-03-29T07:09:12.424Z,2826.00
2023-03-29T07:10:12.454Z,2780.00
2023-03-29T07:11:12.386Z,2730.00
2023-03-29T07:12:12.374Z,2600.00
2023-03-29T07:13:12.367Z,2453.00
2023-03-29T07:14:12.379Z,2344.00
2023-03-29T07:15:12.352Z,2268.00
2023-03-29T07:16:12.433Z,2255.00
2023-03-29T07:17:12.279Z,2312.00
2023-03-29T07:18:12.321Z,2516.00
2023-03-29T07:19:12.251Z,2911.00
2023-03-29T07:20:12.300Z,3355.00
2023-03-29T07:21:12.284Z,3502.00
2023-03-29T07:22:12.348Z,3332.00
2023-03-29T07:23:12.230Z,3152.00
2023-03-29T07:24:12.417Z,3022.00
2023-03-29T07:25:12.195Z,3109.00
2023-03-29T07:26:12.254Z,3328.00
2023-03-29T07:27:12.148Z,3574.00
2023-03-29T07:28:12.305Z,3578.00
2023-03-29T07:29:12.182Z,3516.00
2023-03-29T07:30:12.159Z,3633.00
2023-03-29T07:31:12.165Z,3937.00
2023-03-29T07:32:12.367Z,4377.00
2023-03-29T07:33:12.321Z,4813.00
2023-03-29T07:34:12.113Z,5299.00
2023-03-29T07:35:12.113Z,5516.00
2023-03-29T07:36:12.053Z,5746.00
2023-03-29T07:37:12.039Z,5500.00
2023-03-29T07:38:12.024Z,5251.00
2023-03-29T07:39:12.027Z,4774.00
2023-03-29T07:40:12.042Z,4434.00
2023-03-29T07:41:12.017Z,4557.00
2023-03-29T07:42:11.949Z,4642.00
2023-03-29T07:43:12.010Z,4805.00
2023-03-29T07:44:11.926Z,4871.00
2023-03-29T07:45:11.938Z,4697.00
2023-03-29T07:46:12.085Z,4685.00
2023-03-29T07:47:11.968Z,4977.00
2023-03-29T07:48:11.900Z,5190.00
2023-03-29T07:49:11.881Z,5133.00
2023-03-29T07:50:11.869Z,4985.00
2023-03-29T07:51:11.857Z,4741.00
2023-03-29T07:52:11.888Z,4336.00
2023-03-29T07:53:11.846Z,4153.00
2023-03-29T07:54:11.784Z,3783.00
2023-03-29T07:55:11.822Z,4096.00
2023-03-29T07:56:11.783Z,4651.00
2023-03-29T07:57:11.815Z,4541.00
2023-03-29T07:58:11.782Z,3946.00
2023-03-29T07:59:11.751Z,3602.00
2023-03-29T08:00:11.731Z,3615.00
2023-03-29T08:01:14.205Z,3721.00
2023-03-29T08:02:11.693Z,3915.00
2023-03-29T08:03:11.821Z,3874.00
2023-03-29T08:04:11.779Z,3965.00
2023-03-29T08:05:11.726Z,3749.00
2023-03-29T08:06:11.635Z,4213.00
2023-03-29T08:07:12.663Z,4307.00
2023-03-29T08:08:11.604Z,4206.00
2023-03-29T08:09:11.615Z,4097.00
2023-03-29T08:10:11.665Z,4187.00
2023-03-29T08:11:11.596Z,3820.00
2023-03-29T08:12:11.574Z,3540.00
2023-03-29T08:13:11.585Z,3591.00
2023-03-29T08:14:11.527Z,4099.00
2023-03-29T08:15:11.573Z,4696.00
2023-03-29T08:16:11.616Z,5285.00
2023-03-29T08:17:11.521Z,5540.00
2023-03-29T08:18:11.544Z,5696.00
2023-03-29T08:19:11.515Z,4678.00
2023-03-29T08:20:11.448Z,4734.00
2023-03-29T08:21:11.462Z,4763.00
2023-03-29T08:22:12.448Z,4515.00
2023-03-29T08:23:11.438Z,4194.00
2023-03-29T08:24:11.429Z,4343.00
2023-03-29T08:25:11.477Z,4670.00
2023-03-29T08:26:11.366Z,5098.00
2023-03-29T08:27:11.410Z,5504.00
2023-03-29T08:28:11.387Z,5583.00
2023-03-29T08:29:11.367Z,5421.00
2023-03-29T08:30:12.316Z,5731.00
2023-03-29T08:31:11.412Z,5956.00
2023-03-29T08:32:11.348Z,6370.00
2023-03-29T08:33:11.354Z,6700.00
2023-03-29T08:34:11.378Z,7023.00
2023-03-29T08:35:11.300Z,6423.00
2023-03-29T08:36:11.273Z,5665.00
2023-03-29T08:37:11.244Z,6283.00
2023-03-29T08:38:11.231Z,7147.00
2023-03-29T08:39:11.240Z,6980.00
2023-03-29T08:40:11.321Z,6350.00
2023-03-29T08:41:11.220Z,5888.00
2023-03-29T08:42:11.154Z,5819.00
2023-03-29T08:43:11.201Z,5711.00
2023-03-29T08:44:11.125Z,6154.00
2023-03-29T08:45:11.151Z,6995.00
2023-03-29T08:46:11.271Z,7147.00
2023-03-29T08:47:11.111Z,7122.00
2023-03-29T08:48:11.090Z,7199.00
2023-03-29T08:49:11.128Z,7201.00
2023-03-29T08:50:11.042Z,6680.00
2023-03-29T08:51:11.746Z,6452.00
2023-03-29T08:52:11.121Z,6807.00
2023-03-29T08:53:11.066Z,6742.00
2023-03-29T08:54:10.993Z,6431.00
2023-03-29T08:55:11.032Z,6397.00
2023-03-29T08:56:10.996Z,6444.00
2023-03-29T08:57:11.045Z,6818.00
2023-03-29T08:58:11.080Z,7191.00
2023-03-29T08:59:10.963Z,7348.00
2023-03-29T09:00:10.953Z,7323.00
2023-03-29T09:01:10.951Z,7395.00
2023-03-29T09:02:10.969Z,7386.00
2023-03-29T09:03:10.978Z,7300.00
2023-03-29T09:04:10.926Z,6574.00
2023-03-29T09:05:10.875Z,5628.00
2023-03-29T09:06:10.875Z,5298.00
2023-03-29T09:07:10.917Z,5268.00
2023-03-29T09:08:10.805Z,5912.00
2023-03-29T09:09:10.836Z,6241.00
2023-03-29T09:10:10.844Z,5839.00
2023-03-29T09:11:10.795Z,5540.00
2023-03-29T09:12:10.794Z,5805.00
2023-03-29T09:13:10.842Z,7048.00
2023-03-29T09:14:10.717Z,7992.00
2023-03-29T09:15:10.761Z,8322.00
2023-03-29T09:16:10.768Z,8388.00
2023-03-29T09:17:10.718Z,8540.00
2023-03-29T09:18:10.739Z,8714.00
2023-03-29T09:19:10.687Z,8405.00
2023-03-29T09:20:10.675Z,7826.00
2023-03-29T09:21:10.675Z,7216.00
2023-03-29T09:22:10.651Z,6900.00
2023-03-29T09:23:10.631Z,6730.00
2023-03-29T09:24:10.618Z,6651.00
2023-03-29T09:25:10.634Z,6302.00
2023-03-29T09:26:10.567Z,5687.00
2023-03-29T09:27:10.595Z,5305.00
2023-03-29T09:28:10.584Z,5328.00
2023-03-29T09:29:10.550Z,5460.00
2023-03-29T09:30:10.532Z,5504.00
2023-03-29T09:31:10.552Z,5477.00
2023-03-29T09:32:10.508Z,5471.00
2023-03-29T09:33:10.536Z,5273.00
2023-03-29T09:34:10.566Z,4978.00
2023-03-29T09:35:10.514Z,5099.00
2023-03-29T09:36:11.421Z,5528.00
2023-03-29T09:37:10.460Z,6544.00
2023-03-29T09:38:10.449Z,8031.00
2023-03-29T09:39:10.419Z,8432.00
2023-03-29T09:40:10.437Z,8029.00
2023-03-29T09:41:10.443Z,7280.00
2023-03-29T09:42:10.351Z,7083.00
2023-03-29T09:43:10.384Z,7117.00
2023-03-29T09:44:17.703Z,7078.00
2023-03-29T09:45:11.356Z,7045.00
2023-03-29T09:46:10.329Z,7119.00
2023-03-29T09:47:10.308Z,7562.00
2023-03-29T09:48:10.400Z,8961.00
2023-03-29T09:49:10.326Z,8345.00
2023-03-29T09:50:23.118Z,7462.00
2023-03-29T09:51:11.403Z,7178.00
2023-03-29T09:52:10.214Z,6833.00
2023-03-29T09:53:10.379Z,6541.00
2023-03-29T09:54:10.222Z,6635.00
2023-03-29T09:55:10.225Z,6848.00
2023-03-29T09:56:10.164Z,6872.00
2023-03-29T09:57:10.323Z,7931.00
2023-03-29T09:58:10.166Z,9822.00
2023-03-29T09:59:10.152Z,10437.00
2023-03-29T10:00:10.162Z,9855.00
2023-03-29T10:01:10.275Z,8039.00
2023-03-29T10:02:10.110Z,6759.00
2023-03-29T10:03:10.783Z,6765.00
2023-03-29T10:04:10.118Z,7488.00
2023-03-29T10:05:10.071Z,8292.00
2023-03-29T10:06:10.061Z,9148.00
2023-03-29T10:07:10.048Z,8746.00
2023-03-29T10:08:10.037Z,8098.00
2023-03-29T10:09:10.158Z,7343.00
2023-03-29T10:10:09.989Z,6969.00
2023-03-29T10:11:09.997Z,7297.00
2023-03-29T10:12:09.977Z,7316.00
2023-03-29T10:13:11.031Z,7415.00
2023-03-29T10:14:09.934Z,7547.00
2023-03-29T10:15:16.700Z,7767.00
2023-03-29T10:16:10.996Z,7928.00
2023-03-29T10:17:09.917Z,8505.00
2023-03-29T10:18:09.969Z,9418.00
2023-03-29T10:19:09.887Z,9467.00
2023-03-29T10:20:10.246Z,9502.00
2023-03-29T10:21:09.919Z,11220.00
2023-03-29T10:22:09.842Z,13980.00
2023-03-29T10:23:09.884Z,14203.00
2023-03-29T10:24:09.797Z,11974.00
2023-03-29T10:25:09.826Z,10736.00
2023-03-29T10:26:09.829Z,10857.00
2023-03-29T10:27:09.841Z,11257.00
2023-03-29T10:28:09.739Z,12109.00
2023-03-29T10:29:09.783Z,12296.00
2023-03-29T10:30:09.758Z,12661.00
2023-03-29T10:31:09.785Z,13502.00
2023-03-29T10:32:09.784Z,13383.00
2023-03-29T10:33:09.804Z,11778.00
2023-03-29T10:34:09.684Z,10799.00
2023-03-29T10:35:09.842Z,10698.00
2023-03-29T10:36:09.720Z,11342.00
2023-03-29T10:37:09.675Z,12106.00
2023-03-29T10:38:09.678Z,13049.00
2023-03-29T10:39:09.671Z,13945.00
2023-03-29T10:40:09.630Z,14377.00
2023-03-29T10:41:09.634Z,14681.00
2023-03-29T10:42:09.588Z,15170.00
2023-03-29T10:43:09.610Z,15151.00
2023-03-29T10:44:09.534Z,14697.00
2023-03-29T10:45:09.582Z,14233.00
2023-03-29T10:46:09.577Z,13872.00
2023-03-29T10:47:09.523Z,14015.00
2023-03-29T10:48:09.545Z,13523.00
2023-03-29T10:49:09.555Z,13279.00
2023-03-29T10:50:09.477Z,13234.00
2023-03-29T10:51:09.522Z,13735.00
2023-03-29T10:52:09.460Z,14519.00
2023-03-29T10:53:09.448Z,15590.00
2023-03-29T10:54:09.449Z,16275.00
2023-03-29T10:55:09.432Z,17224.00
2023-03-29T10:56:09.406Z,17334.00
2023-03-29T10:57:09.494Z,16983.00
2023-03-29T10:58:09.361Z,16022.00
2023-03-29T10:59:09.377Z,14704.00
2023-03-29T11:00:09.353Z,13875.00
2023-03-29T11:01:09.398Z,14194.00
2023-03-29T11:02:09.302Z,13932.00
2023-03-29T11:03:09.451Z,13209.00
2023-03-29T11:04:09.369Z,12798.00
2023-03-29T11:05:09.319Z,13207.00
2023-03-29T11:06:09.272Z,14286.00
2023-03-29T11:07:09.269Z,14258.00
2023-03-29T11:08:09.275Z,13270.00
2023-03-29T11:09:09.283Z,12705.00
2023-03-29T11:10:09.271Z,13131.00
2023-03-29T11:11:09.254Z,14213.00
2023-03-29T11:12:15.783Z,14772.00
2023-03-29T11:13:10.192Z,15052.00
2023-03-29T11:14:09.189Z,13353.00
2023-03-29T11:15:09.224Z,13458.00
2023-03-29T11:16:09.122Z,14199.00
2023-03-29T11:17:09.134Z,14396.00
2023-03-29T11:18:09.126Z,14815.00
2023-03-29T11:19:09.103Z,15465.00
2023-03-29T11:20:09.091Z,15273.00
2023-03-29T11:21:10.768Z,15486.00
2023-03-29T11:22:09.022Z,15203.00
2023-03-29T11:23:09.075Z,13424.00
2023-03-29T11:24:09.008Z,12890.00
2023-03-29T11:25:09.018Z,13500.00
2023-03-29T11:26:08.992Z,14111.00
2023-03-29T11:27:09.019Z,14632.00
2023-03-29T11:28:08.981Z,14521.00
2023-03-29T11:29:08.992Z,14069.00
2023-03-29T11:30:08.926Z,12897.00
2023-03-29T11:31:08.941Z,12483.00
2023-03-29T11:32:08.930Z,12332.00
2023-03-29T11:33:09.054Z,12320.00
2023-03-29T11:34:08.868Z,12650.00
2023-03-29T11:35:08.924Z,13312.00
2023-03-29T11:36:08.879Z,13751.00
2023-03-29T11:37:08.929Z,13785.00
2023-03-29T11:38:08.850Z,12769.00
2023-03-29T11:39:08.955Z,9753.00
2023-03-29T11:40:08.835Z,7798.00
2023-03-29T11:41:08.830Z,6775.00
2023-03-29T11:42:08.761Z,8862.00
2023-03-29T11:43:08.815Z,10818.00
2023-03-29T11:44:08.742Z,9113.00
2023-03-29T11:45:08.798Z,6961.00
2023-03-29T11:46:08.748Z,6588.00
2023-03-29T11:47:08.687Z,7633.00
2023-03-29T11:48:08.793Z,8329.00
2023-03-29T11:49:08.709Z,8350.00
2023-03-29T11:50:08.685Z,8827.00
2023-03-29T11:51:08.817Z,8554.00
2023-03-29T11:52:08.657Z,7703.00
2023-03-29T11:53:08.611Z,7420.00
2023-03-29T11:54:08.655Z,8192.00
2023-03-29T11:55:08.599Z,10344.00
2023-03-29T11:56:08.622Z,13235.00
2023-03-29T11:57:08.721Z,15000.00
2023-03-29T11:58:08.621Z,14563.00
2023-03-29T11:59:08.562Z,15546.00
2023-03-29T12:00:08.556Z,17101.00
2023-03-29T12:01:08.511Z,16376.00
2023-03-29T12:02:08.572Z,16837.00
2023-03-29T12:03:08.658Z,17415.00
2023-03-29T12:04:08.565Z,18859.00
2023-03-29T12:05:08.486Z,20244.00
2023-03-29T12:06:08.493Z,22557.00
2023-03-29T12:07:08.440Z,19316.00
2023-03-29T12:08:08.512Z,19835.00
2023-03-29T12:09:08.546Z,21250.00
2023-03-29T12:10:08.450Z,21646.00
2023-03-29T12:11:08.447Z,22509.00
2023-03-29T12:12:08.391Z,23273.00
2023-03-29T12:13:08.338Z,25201.00
2023-03-29T12:14:08.421Z,25468.00
2023-03-29T12:15:08.432Z,25075.00
2023-03-29T12:16:08.373Z,24525.00
2023-03-29T12:17:08.349Z,25585.00
2023-03-29T12:18:08.422Z,27141.00
2023-03-29T12:19:08.273Z,25902.00
2023-03-29T12:20:08.320Z,22393.00
2023-03-29T12:21:08.362Z,21460.00
2023-03-29T12:22:08.258Z,20744.00
2023-03-29T12:23:08.254Z,20349.00
2023-03-29T12:24:08.262Z,19384.00
2023-03-29T12:25:09.716Z,20195.00
2023-03-29T12:26:08.240Z,20740.00
2023-03-29T12:27:08.303Z,22894.00
2023-03-29T12:28:08.194Z,25524.00
2023-03-29T12:29:08.191Z,26539.00
2023-03-29T12:30:08.207Z,23444.00
2023-03-29T12:31:08.137Z,22287.00
2023-03-29T12:32:08.184Z,22264.00
2023-03-29T12:33:08.251Z,20740.00
2023-03-29T12:34:08.125Z,18638.00
2023-03-29T12:35:08.118Z,18128.00
2023-03-29T12:36:08.118Z,18355.00
2023-03-29T12:37:08.032Z,18521.00
2023-03-29T12:38:08.085Z,17590.00
2023-03-29T12:39:08.039Z,18951.00
2023-03-29T12:40:08.041Z,17085.00
2023-03-29T12:41:08.002Z,17163.00
2023-03-29T12:42:08.000Z,17282.00
2023-03-29T12:43:08.004Z,20035.00
2023-03-29T12:44:10.248Z,21911.00